createdAt,value
2023-01-06T00:00:27.345Z,101464.19
2023-01-06T00:02:53.988Z,101468.16
2023-01-06T00:05:20.590Z,101467.19
2023-01-06T00:07:51.246Z,101475.00
2023-01-06T00:10:17.891Z,101464.75
2023-01-06T00:12:45.890Z,101471.41
2023-01-06T00:15:12.830Z,101470.00
2023-01-06T00:17:39.629Z,101472.66
2023-01-06T00:20:06.808Z,101462.38
2023-01-06T00:22:33.662Z,101468.19
2023-01-06T00:25:00.183Z,101467.13
2023-01-06T00:27:26.841Z,101462.94
2023-01-06T00:29:53.298Z,101457.56
2023-01-06T00:32:19.946Z,101449.19
2023-01-06T00:34:46.424Z,101451.41
2023-01-06T00:37:12.912Z,101447.06
2023-01-06T00:39:39.388Z,101454.94
2023-01-06T00:42:06.740Z,101454.03
2023-01-06T00:44:35.760Z,101459.38
2023-01-06T00:47:03.184Z,101450.22
2023-01-06T00:49:29.635Z,101458.63
2023-01-06T00:51:56.065Z,101459.84
2023-01-06T00:54:23.022Z,101454.63
2023-01-06T00:56:51.889Z,101451.56
2023-01-06T00:59:25.616Z,101458.38
2023-01-06T01:01:54.787Z,101460.13
2023-01-06T01:04:21.839Z,101458.88
2023-01-06T01:06:49.254Z,101456.47
2023-01-06T01:09:43.295Z,101457.59
2023-01-06T01:12:12.043Z,101456.09
2023-01-06T01:14:50.336Z,101452.34
2023-01-06T01:17:20.754Z,101449.09
2023-01-06T01:19:48.315Z,101447.41
2023-01-06T01:22:14.811Z,101440.38
2023-01-06T01:24:41.730Z,101436.16
2023-01-06T01:27:08.350Z,101441.94
2023-01-06T01:29:34.830Z,101437.28
2023-01-06T01:32:01.480Z,101424.28
2023-01-06T01:34:27.999Z,101428.50
2023-01-06T01:36:55.011Z,101423.63
2023-01-06T01:39:24.467Z,101436.84
2023-01-06T01:41:51.517Z,101429.16
2023-01-06T01:44:52.130Z,101427.50
2023-01-06T01:47:21.767Z,101434.09
2023-01-06T01:49:52.443Z,101424.16
2023-01-06T01:52:19.940Z,101437.72
2023-01-06T01:54:48.802Z,101427.72
2023-01-06T01:57:21.376Z,101412.50
2023-01-06T01:59:47.971Z,101417.06
2023-01-06T02:02:16.654Z,101411.88
2023-01-06T02:04:47.924Z,101412.38
2023-01-06T02:07:14.474Z,101415.00
2023-01-06T02:09:57.802Z,101414.25
2023-01-06T02:12:24.280Z,101412.25
2023-01-06T02:14:50.870Z,101417.50
2023-01-06T02:17:44.626Z,101415.63
2023-01-06T02:20:34.604Z,101403.84
2023-01-06T02:23:31.737Z,101401.03
2023-01-06T02:26:19.236Z,101394.75
2023-01-06T02:29:16.560Z,101385.50
2023-01-06T02:32:21.448Z,101381.53
2023-01-06T02:35:22.432Z,101391.88
2023-01-06T02:38:05.872Z,101383.22
2023-01-06T02:40:34.936Z,101389.53
2023-01-06T02:43:14.473Z,101384.97
2023-01-06T02:46:10.200Z,101379.47
2023-01-06T02:49:01.838Z,101377.75
2023-01-06T02:51:41.453Z,101373.59
2023-01-06T02:54:58.857Z,101360.91
2023-01-06T02:57:32.018Z,101385.91
2023-01-06T03:00:14.788Z,101372.34
2023-01-06T03:02:45.564Z,101369.81
2023-01-06T03:05:16.598Z,101369.16
2023-01-06T03:07:45.780Z,101389.13
2023-01-06T03:10:16.444Z,101375.59
2023-01-06T03:13:00.248Z,101365.63
2023-01-06T03:15:26.916Z,101372.56
2023-01-06T03:17:53.509Z,101360.75
2023-01-06T03:20:20.686Z,101364.25
2023-01-06T03:22:47.825Z,101347.28
2023-01-06T03:25:14.911Z,101346.53
2023-01-06T03:27:41.403Z,101345.22
2023-01-06T03:30:10.755Z,101343.53
2023-01-06T03:32:55.565Z,101344.44
2023-01-06T03:36:08.775Z,101337.06
2023-01-06T03:39:16.935Z,101332.06
2023-01-06T03:42:06.215Z,101329.41
2023-01-06T03:44:50.164Z,101326.94
2023-01-06T03:47:38.458Z,101328.25
2023-01-06T03:50:17.851Z,101317.59
2023-01-06T03:52:55.879Z,101321.56
2023-01-06T03:55:29.991Z,101316.88
2023-01-06T03:57:59.803Z,101304.78
2023-01-06T04:00:32.842Z,101301.69
2023-01-06T04:02:59.915Z,101305.75
2023-01-06T04:05:28.829Z,101308.56
2023-01-06T04:07:55.451Z,101311.03
2023-01-06T04:10:23.366Z,101311.34
2023-01-06T04:12:50.724Z,101303.94
2023-01-06T04:15:20.419Z,101311.13
2023-01-06T04:17:48.008Z,101306.22
2023-01-06T04:20:20.550Z,101300.53
2023-01-06T04:22:47.173Z,101299.22
2023-01-06T04:25:13.679Z,101297.63
2023-01-06T04:27:40.339Z,101290.13
2023-01-06T04:30:07.537Z,101289.00
2023-01-06T04:32:34.063Z,101284.47
2023-01-06T04:35:00.517Z,101279.44
2023-01-06T04:37:27.000Z,101285.31
2023-01-06T04:39:53.419Z,101281.38
2023-01-06T04:42:19.974Z,101277.63
2023-01-06T04:44:46.560Z,101271.09
2023-01-06T04:47:13.033Z,101270.03
2023-01-06T04:49:39.463Z,101272.41
2023-01-06T04:52:07.014Z,101254.19
2023-01-06T04:54:33.468Z,101254.66
2023-01-06T04:56:59.917Z,101239.53
2023-01-06T04:59:26.431Z,101235.28
2023-01-06T05:01:52.933Z,101236.66
2023-01-06T05:04:19.559Z,101231.19
2023-01-06T05:06:46.261Z,101233.19
2023-01-06T05:09:12.764Z,101225.34
2023-01-06T05:11:39.255Z,101221.00
2023-01-06T05:14:05.718Z,101218.25
2023-01-06T05:16:34.285Z,101225.81
2023-01-06T05:19:01.350Z,101219.84
2023-01-06T05:21:32.280Z,101221.13
2023-01-06T05:23:59.377Z,101224.69
2023-01-06T05:26:27.497Z,101227.91
2023-01-06T05:28:54.373Z,101220.72
2023-01-06T05:31:21.184Z,101224.84
2023-01-06T05:33:47.669Z,101222.31
2023-01-06T05:36:16.311Z,101210.31
2023-01-06T05:38:43.629Z,101201.16
2023-01-06T05:41:10.439Z,101205.97
2023-01-06T05:43:37.563Z,101202.75
2023-01-06T05:46:08.274Z,101197.84
2023-01-06T05:48:35.292Z,101191.78
2023-01-06T05:51:09.778Z,101186.47
2023-01-06T05:53:38.849Z,101192.25
2023-01-06T05:56:07.221Z,101192.72
2023-01-06T05:58:34.542Z,101186.50
2023-01-06T06:01:02.216Z,101189.41
2023-01-06T06:03:28.714Z,101185.81
2023-01-06T06:05:55.443Z,101184.44
2023-01-06T06:08:21.915Z,101186.53
2023-01-06T06:10:48.377Z,101189.97
2023-01-06T06:13:14.838Z,101194.91
2023-01-06T06:15:41.393Z,101188.31
2023-01-06T06:18:07.843Z,101192.50
2023-01-06T06:20:34.335Z,101177.44
2023-01-06T06:23:00.976Z,101180.16
2023-01-06T06:25:29.361Z,101182.88
2023-01-06T06:27:59.429Z,101175.44
2023-01-06T06:30:26.391Z,101160.59
2023-01-06T06:32:52.933Z,101159.56
2023-01-06T06:35:19.365Z,101156.72
2023-01-06T06:37:45.843Z,101157.84
2023-01-06T06:40:12.515Z,101155.31
2023-01-06T06:42:38.968Z,101154.72
2023-01-06T06:45:06.058Z,101152.44
2023-01-06T06:47:32.613Z,101146.84
2023-01-06T06:49:59.045Z,101149.34
2023-01-06T06:52:25.538Z,101151.13
2023-01-06T06:54:52.010Z,101139.47
2023-01-06T06:57:18.485Z,101134.56
2023-01-06T06:59:44.940Z,101144.75
2023-01-06T07:02:11.570Z,101142.13
2023-01-06T07:04:38.114Z,101142.59
2023-01-06T07:07:04.622Z,101127.03
2023-01-06T07:09:31.059Z,101128.69
2023-01-06T07:11:57.470Z,101122.19
2023-01-06T07:14:23.922Z,101123.25
2023-01-06T07:16:50.349Z,101125.19
2023-01-06T07:19:16.796Z,101115.00
2023-01-06T07:21:43.250Z,101126.13
2023-01-06T07:24:09.964Z,101121.19
2023-01-06T07:26:36.597Z,101126.50
2023-01-06T07:29:03.117Z,101120.66
2023-01-06T07:31:29.962Z,101122.84
2023-01-06T07:33:56.464Z,101124.06
2023-01-06T07:36:22.884Z,101134.94
2023-01-06T07:38:49.523Z,101129.25
2023-01-06T07:41:15.983Z,101125.44
2023-01-06T07:43:42.447Z,101123.50
2023-01-06T07:46:09.480Z,101134.81
2023-01-06T07:48:36.903Z,101138.63
2023-01-06T07:51:03.507Z,101125.84
2023-01-06T07:53:33.183Z,101134.94
2023-01-06T07:55:59.700Z,101137.66
2023-01-06T07:58:26.300Z,101125.34
2023-01-06T08:00:52.868Z,101132.81
2023-01-06T08:03:19.423Z,101122.91
2023-01-06T08:05:45.992Z,101107.09
2023-01-06T08:08:12.764Z,101107.22
2023-01-06T08:10:40.842Z,101123.63
2023-01-06T08:13:07.667Z,101112.78
2023-01-06T08:15:36.076Z,101102.94
2023-01-06T08:18:02.588Z,101107.03
2023-01-06T08:20:29.117Z,101103.09
2023-01-06T08:22:57.820Z,101086.28
2023-01-06T08:25:24.297Z,101099.72
2023-01-06T08:27:50.948Z,101101.91
2023-01-06T08:30:21.458Z,101086.88
2023-01-06T08:32:49.406Z,101075.75
2023-01-06T08:35:16.149Z,101072.69
2023-01-06T08:37:42.634Z,101070.41
2023-01-06T08:40:09.487Z,101076.94
2023-01-06T08:42:35.920Z,101078.41
2023-01-06T08:45:02.535Z,101087.09
2023-01-06T08:47:29.075Z,101066.09
2023-01-06T08:49:55.501Z,101066.56
2023-01-06T08:52:21.958Z,101061.59
2023-01-06T08:54:48.371Z,101067.03
2023-01-06T08:57:16.343Z,101058.31
2023-01-06T08:59:42.931Z,101057.69
2023-01-06T09:02:11.026Z,101049.31
2023-01-06T09:04:37.606Z,101052.06
2023-01-06T09:07:04.287Z,101049.19
2023-01-06T09:09:30.709Z,101053.41
2023-01-06T09:11:58.029Z,101055.56
2023-01-06T09:14:24.790Z,101063.19
2023-01-06T09:16:51.239Z,101069.47
2023-01-06T09:19:17.913Z,101080.72
2023-01-06T09:21:46.181Z,101077.59
2023-01-06T09:24:14.239Z,101066.22
2023-01-06T09:26:41.153Z,101054.81
2023-01-06T09:29:07.686Z,101038.47
2023-01-06T09:31:35.531Z,101036.66
2023-01-06T09:34:02.290Z,101038.34
2023-01-06T09:36:28.727Z,101054.25
2023-01-06T09:38:55.334Z,101053.53
2023-01-06T09:41:49.552Z,101038.66
2023-01-06T09:44:54.906Z,101038.44
2023-01-06T09:47:44.616Z,101027.75
2023-01-06T09:50:21.076Z,101014.28
2023-01-06T09:53:13.541Z,101019.53
2023-01-06T09:55:52.204Z,101010.44
2023-01-06T09:58:23.945Z,101005.31
2023-01-06T10:00:53.167Z,100994.66
2023-01-06T10:03:21.941Z,101004.41
2023-01-06T10:05:51.401Z,100989.53
2023-01-06T10:08:56.154Z,100986.31
2023-01-06T10:11:49.506Z,100981.69
2023-01-06T10:14:40.853Z,100975.47
2023-01-06T10:17:58.586Z,100977.09
2023-01-06T10:20:27.718Z,100969.38
2023-01-06T10:22:59.152Z,100973.72
2023-01-06T10:25:46.526Z,100960.94
2023-01-06T10:28:31.833Z,100955.91
2023-01-06T10:31:05.863Z,100962.44
2023-01-06T10:33:37.564Z,100960.78
2023-01-06T10:36:04.389Z,100958.84
2023-01-06T10:38:36.048Z,100951.00
2023-01-06T10:41:05.978Z,100940.72
2023-01-06T10:43:32.537Z,100931.28
2023-01-06T10:46:00.263Z,100940.13
2023-01-06T10:48:30.838Z,100932.16
2023-01-06T10:50:58.019Z,100941.00
2023-01-06T10:53:24.710Z,100925.50
2023-01-06T10:55:54.648Z,100926.59
2023-01-06T10:58:24.133Z,100931.56
2023-01-06T11:01:01.137Z,100932.91
2023-01-06T11:03:33.741Z,100928.16
2023-01-06T11:06:06.691Z,100931.56
2023-01-06T11:08:34.342Z,100930.94
2023-01-06T11:11:01.039Z,100918.25
2023-01-06T11:13:27.924Z,100915.31
2023-01-06T11:15:56.125Z,100918.75
2023-01-06T11:18:25.602Z,100920.75
2023-01-06T11:21:12.005Z,100901.88
2023-01-06T11:23:41.248Z,100903.69
2023-01-06T11:26:14.336Z,100895.97
2023-01-06T11:28:42.769Z,100894.53
2023-01-06T11:31:14.980Z,100896.44
2023-01-06T11:34:00.992Z,100890.34
2023-01-06T11:36:31.072Z,100899.03
2023-01-06T11:39:01.765Z,100886.00
2023-01-06T11:41:35.611Z,100897.59
2023-01-06T11:44:22.414Z,100879.72
2023-01-06T11:46:56.995Z,100895.34
2023-01-06T11:49:32.755Z,100879.94
2023-01-06T11:52:18.927Z,100882.91
2023-01-06T11:54:45.945Z,100885.72
2023-01-06T11:57:25.379Z,100890.75
2023-01-06T12:00:05.121Z,100887.03
2023-01-06T12:02:48.684Z,100880.25
2023-01-06T12:05:28.832Z,100863.88
2023-01-06T12:07:57.756Z,100860.41
2023-01-06T12:10:34.602Z,100856.13
2023-01-06T12:13:01.251Z,100861.94
2023-01-06T12:15:30.606Z,100860.81
2023-01-06T12:18:07.330Z,100860.28
2023-01-06T12:20:38.395Z,100857.16
2023-01-06T12:23:06.624Z,100863.34
2023-01-06T12:25:55.057Z,100846.50
2023-01-06T12:28:24.887Z,100847.88
2023-01-06T12:31:10.035Z,100840.59
2023-01-06T12:33:52.787Z,100840.66
2023-01-06T12:36:59.699Z,100833.56
2023-01-06T12:39:37.394Z,100835.31
2023-01-06T12:42:03.860Z,100844.66
2023-01-06T12:44:49.013Z,100836.75
2023-01-06T12:47:24.582Z,100829.72
2023-01-06T12:50:17.569Z,100824.91
2023-01-06T12:52:58.362Z,100824.06
2023-01-06T12:56:03.975Z,100833.81
2023-01-06T12:59:05.216Z,100836.44
2023-01-06T13:02:22.575Z,100828.75
2023-01-06T13:05:11.583Z,100832.94
2023-01-06T13:08:21.098Z,100835.50
2023-01-06T13:11:37.443Z,100835.09
2023-01-06T13:14:15.746Z,100835.66
2023-01-06T13:16:48.233Z,100844.56
2023-01-06T13:19:46.608Z,100835.78
2023-01-06T13:22:23.231Z,100840.31
2023-01-06T13:24:52.302Z,100843.16
2023-01-06T13:27:57.490Z,100851.66
2023-01-06T13:31:04.311Z,100845.97
2023-01-06T13:33:54.460Z,100845.59
2023-01-06T13:36:45.797Z,100854.91
2023-01-06T13:39:22.115Z,100860.34
2023-01-06T13:41:55.737Z,100862.28
2023-01-06T13:44:30.704Z,100852.66
2023-01-06T13:47:05.951Z,100861.25
2023-01-06T13:49:34.086Z,100854.69
2023-01-06T13:52:00.570Z,100861.28
2023-01-06T13:54:39.182Z,100861.41
2023-01-06T13:57:28.973Z,100867.31
2023-01-06T14:00:17.465Z,100871.66
2023-01-06T14:02:43.898Z,100869.91
2023-01-06T14:05:19.284Z,100867.78
2023-01-06T14:07:53.515Z,100881.84
2023-01-06T14:10:32.131Z,100865.59
2023-01-06T14:12:59.748Z,100882.47
2023-01-06T14:15:36.401Z,100886.72
2023-01-06T14:18:03.636Z,100885.81
2023-01-06T14:20:31.810Z,100895.19
2023-01-06T14:23:03.277Z,100900.56
2023-01-06T14:25:30.472Z,100894.13
2023-01-06T14:27:59.735Z,100902.81
2023-01-06T14:30:31.777Z,100897.06
2023-01-06T14:33:07.303Z,100899.91
2023-01-06T14:35:44.987Z,100898.63
2023-01-06T14:38:25.760Z,100900.91
2023-01-06T14:41:02.984Z,100908.94
2023-01-06T14:43:47.350Z,100914.50
2023-01-06T14:46:30.150Z,100917.03
2023-01-06T14:49:01.583Z,100923.34
2023-01-06T14:51:30.302Z,100909.88
2023-01-06T14:54:04.010Z,100907.50
2023-01-06T14:56:33.163Z,100909.38
2023-01-06T14:59:14.455Z,100915.00
2023-01-06T15:01:44.023Z,100917.53
2023-01-06T15:04:23.632Z,100923.19
2023-01-06T15:07:20.989Z,100921.84
2023-01-06T15:09:49.519Z,100921.88
2023-01-06T15:12:30.654Z,100929.56
2023-01-06T15:14:57.760Z,100933.66
2023-01-06T15:17:24.282Z,100928.56
2023-01-06T15:19:52.851Z,100932.16
2023-01-06T15:22:25.645Z,100939.59
2023-01-06T15:24:52.309Z,100945.47
2023-01-06T15:27:19.490Z,100938.78
2023-01-06T15:29:50.976Z,100939.97
2023-01-06T15:32:19.146Z,100941.69
2023-01-06T15:34:47.461Z,100946.94
2023-01-06T15:37:23.967Z,100948.06
2023-01-06T15:39:51.601Z,100957.22
2023-01-06T15:42:22.575Z,100956.06
2023-01-06T15:45:02.717Z,100969.84
2023-01-06T15:47:39.418Z,100975.88
2023-01-06T15:50:17.122Z,100983.81
2023-01-06T15:52:49.774Z,100988.91
2023-01-06T15:55:30.117Z,100996.97
2023-01-06T15:58:08.390Z,100996.97
2023-01-06T16:00:50.382Z,100988.31
2023-01-06T16:03:22.241Z,100997.47
2023-01-06T16:05:53.480Z,100991.56
2023-01-06T16:08:26.715Z,101005.16
2023-01-06T16:11:17.210Z,101008.28
2023-01-06T16:13:58.627Z,101017.13
2023-01-06T16:16:31.583Z,101015.00
2023-01-06T16:18:58.341Z,101012.38
2023-01-06T16:21:31.989Z,101015.00
2023-01-06T16:24:04.093Z,101017.44
2023-01-06T16:26:34.284Z,101010.38
2023-01-06T16:29:05.400Z,101014.94
2023-01-06T16:31:34.830Z,101025.41
2023-01-06T16:34:26.649Z,101024.75
2023-01-06T16:37:00.661Z,101025.53
2023-01-06T16:39:27.686Z,101034.97
2023-01-06T16:42:00.384Z,101030.03
2023-01-06T16:44:31.585Z,101043.63
2023-01-06T16:46:59.119Z,101038.72
2023-01-06T16:49:25.925Z,101034.91
2023-01-06T16:51:54.634Z,101028.28
2023-01-06T16:54:22.574Z,101035.63
2023-01-06T16:56:50.153Z,101037.63
2023-01-06T16:59:18.570Z,101035.81
2023-01-06T17:01:47.395Z,101037.72
2023-01-06T17:04:15.238Z,101042.13
2023-01-06T17:06:43.811Z,101052.59
2023-01-06T17:09:21.745Z,101046.63
2023-01-06T17:11:49.613Z,101053.06
2023-01-06T17:14:21.097Z,101060.38
2023-01-06T17:16:47.934Z,101061.69
2023-01-06T17:19:28.288Z,101062.97
2023-01-06T17:22:20.535Z,101069.88
2023-01-06T17:24:47.167Z,101070.31
2023-01-06T17:27:26.668Z,101067.63
2023-01-06T17:29:54.924Z,101079.59
2023-01-06T17:32:27.089Z,101075.75
2023-01-06T17:34:53.675Z,101081.91
2023-01-06T17:37:25.283Z,101083.91
2023-01-06T17:39:52.699Z,101099.97
2023-01-06T17:42:32.453Z,101102.00
2023-01-06T17:45:00.439Z,101104.44
2023-01-06T17:47:29.706Z,101110.03
2023-01-06T17:50:00.829Z,101110.88
2023-01-06T17:52:35.646Z,101109.75
2023-01-06T17:55:43.730Z,101104.50
2023-01-06T17:58:15.097Z,101116.31
2023-01-06T18:00:42.394Z,101116.56
2023-01-06T18:03:19.100Z,101118.84
2023-01-06T18:05:45.703Z,101123.13
2023-01-06T18:08:14.892Z,101128.81
2023-01-06T18:11:05.562Z,101127.72
2023-01-06T18:13:31.965Z,101131.59
2023-01-06T18:16:00.484Z,101128.66
2023-01-06T18:18:36.693Z,101126.19
2023-01-06T18:21:23.074Z,101136.41
2023-01-06T18:23:52.248Z,101132.97
2023-01-06T18:26:27.745Z,101134.66
2023-01-06T18:28:59.906Z,101137.91
2023-01-06T18:31:33.364Z,101136.19
2023-01-06T18:34:02.274Z,101132.56
2023-01-06T18:36:28.894Z,101134.66
2023-01-06T18:38:56.233Z,101133.59
2023-01-06T18:41:22.704Z,101128.72
2023-01-06T18:43:49.141Z,101137.31
2023-01-06T18:46:18.028Z,101133.91
2023-01-06T18:48:45.302Z,101131.03
2023-01-06T18:51:22.805Z,101137.09
2023-01-06T18:53:51.363Z,101129.84
2023-01-06T18:56:26.889Z,101139.13
2023-01-06T18:58:57.060Z,101148.16
2023-01-06T19:01:26.702Z,101141.25
2023-01-06T19:04:16.494Z,101143.31
2023-01-06T19:06:50.651Z,101145.50
2023-01-06T19:09:25.935Z,101143.16
2023-01-06T19:12:00.729Z,101144.75
2023-01-06T19:14:29.427Z,101148.66
2023-01-06T19:16:58.664Z,101151.06
2023-01-06T19:19:34.805Z,101153.84
2023-01-06T19:22:23.651Z,101152.16
2023-01-06T19:25:03.846Z,101158.81
2023-01-06T19:27:37.784Z,101155.56
2023-01-06T19:30:13.078Z,101161.25
2023-01-06T19:32:40.183Z,101156.66
2023-01-06T19:35:17.616Z,101156.94
2023-01-06T19:37:44.170Z,101165.84
2023-01-06T19:40:25.363Z,101163.09
2023-01-06T19:42:57.168Z,101173.22
2023-01-06T19:45:32.556Z,101181.38
2023-01-06T19:48:00.697Z,101179.53
2023-01-06T19:50:27.324Z,101182.34
2023-01-06T19:53:00.197Z,101177.38
2023-01-06T19:55:32.664Z,101178.84
2023-01-06T19:58:03.835Z,101179.44
2023-01-06T20:00:31.921Z,101177.66
2023-01-06T20:03:01.799Z,101179.69
2023-01-06T20:05:29.699Z,101179.94
2023-01-06T20:07:56.133Z,101183.44
2023-01-06T20:10:22.754Z,101184.03
2023-01-06T20:12:50.876Z,101187.94
2023-01-06T20:15:17.400Z,101183.81
2023-01-06T20:17:43.925Z,101188.41
2023-01-06T20:20:10.916Z,101193.88
2023-01-06T20:22:37.381Z,101190.66
2023-01-06T20:25:04.101Z,101200.94
2023-01-06T20:27:30.561Z,101199.06
2023-01-06T20:29:57.005Z,101192.16
2023-01-06T20:32:23.544Z,101193.63
2023-01-06T20:34:50.105Z,101191.91
2023-01-06T20:37:16.521Z,101199.44
2023-01-06T20:39:43.087Z,101199.28
2023-01-06T20:42:11.904Z,101204.31
2023-01-06T20:44:39.567Z,101193.28
2023-01-06T20:47:06.299Z,101198.13
2023-01-06T20:49:32.767Z,101197.06
2023-01-06T20:51:59.250Z,101202.09
2023-01-06T20:54:25.693Z,101203.09
2023-01-06T20:56:53.751Z,101203.59
2023-01-06T20:59:20.468Z,101208.66
2023-01-06T21:01:47.023Z,101206.00
2023-01-06T21:04:13.687Z,101210.69
2023-01-06T21:06:40.297Z,101215.34
2023-01-06T21:09:06.795Z,101218.16
2023-01-06T21:11:33.303Z,101223.47
2023-01-06T21:13:59.741Z,101219.72
2023-01-06T21:16:26.278Z,101216.81
2023-01-06T21:18:52.814Z,101216.19
2023-01-06T21:21:19.277Z,101220.28
2023-01-06T21:23:45.725Z,101217.16
2023-01-06T21:26:12.174Z,101213.38
2023-01-06T21:28:38.697Z,101222.41
2023-01-06T21:31:05.336Z,101216.59
2023-01-06T21:33:32.708Z,101220.88
2023-01-06T21:35:59.396Z,101221.13
2023-01-06T21:38:25.834Z,101226.38
2023-01-06T21:40:53.524Z,101221.31
2023-01-06T21:43:19.998Z,101214.94
2023-01-06T21:45:46.592Z,101225.88
2023-01-06T21:48:14.116Z,101218.06
2023-01-06T21:50:43.390Z,101221.41
2023-01-06T21:53:12.316Z,101224.47
2023-01-06T21:55:39.379Z,101222.34
2023-01-06T21:58:05.947Z,101228.16
2023-01-06T22:00:32.484Z,101231.69
2023-01-06T22:02:59.030Z,101224.47
2023-01-06T22:05:25.570Z,101226.88
2023-01-06T22:07:53.325Z,101224.97
2023-01-06T22:10:22.656Z,101225.97
2023-01-06T22:12:52.676Z,101230.34
2023-01-06T22:15:20.314Z,101228.72
2023-01-06T22:17:46.898Z,101232.38
2023-01-06T22:20:13.689Z,101236.88
2023-01-06T22:22:41.598Z,101235.81
2023-01-06T22:25:08.787Z,101230.16
2023-01-06T22:27:35.299Z,101235.69
2023-01-06T22:30:01.883Z,101229.78
2023-01-06T22:32:28.481Z,101235.81
2023-01-06T22:34:54.955Z,101242.84
2023-01-06T22:37:21.511Z,101238.03
2023-01-06T22:39:49.215Z,101236.66
2023-01-06T22:42:16.135Z,101241.84
2023-01-06T22:44:42.663Z,101241.69
2023-01-06T22:47:09.238Z,101239.59
2023-01-06T22:49:35.758Z,101245.72
2023-01-06T22:52:02.234Z,101243.41
2023-01-06T22:54:28.744Z,101240.84
2023-01-06T22:56:55.181Z,101240.69
2023-01-06T22:59:21.687Z,101243.00
2023-01-06T23:01:48.282Z,101242.16
2023-01-06T23:04:14.962Z,101230.53
2023-01-06T23:06:42.081Z,101238.19
2023-01-06T23:09:08.543Z,101242.44
2023-01-06T23:11:41.304Z,101236.41
2023-01-06T23:14:08.935Z,101235.06
2023-01-06T23:16:36.993Z,101245.25
2023-01-06T23:19:03.939Z,101239.31
2023-01-06T23:21:31.696Z,101239.50
2023-01-06T23:23:58.721Z,101237.88
2023-01-06T23:26:35.912Z,101224.88
2023-01-06T23:29:02.772Z,101225.13
2023-01-06T23:31:31.820Z,101227.50
2023-01-06T23:34:02.403Z,101223.75
2023-01-06T23:36:32.731Z,101230.09
2023-01-06T23:39:00.923Z,101231.34
2023-01-06T23:41:31.232Z,101232.16
2023-01-06T23:43:58.181Z,101233.38
2023-01-06T23:46:33.632Z,101237.84
2023-01-06T23:49:00.147Z,101232.34
2023-01-06T23:51:30.568Z,101245.28
2023-01-06T23:53:57.007Z,101247.09
2023-01-06T23:56:25.877Z,101251.88
2023-01-06T23:58:54.330Z,101244.00
